Time;durP1;ratioP1;P1;durP2;ratioP2;P2;SDS_P1;SDS_P2;PMS_P1;PMS_P2;Temp;Humidity;BMP_temperature;BMP_pressure;BME280_temperature;BME280_humidity;BME280_pressure;Samples;Min_cycle;Max_cycle;Signal;HPM_P1;HPM_P2
2023/05/28 00:01:56;;;;;;;7.97;4.88;;;;;;;14.24;59.97;99306.00;5045376;28;20407;-79
2023/05/28 00:04:24;;;;;;;10.40;5.00;;;;;;;14.10;60.11;99304.84;5042913;28;20025;-79
2023/05/28 00:06:50;;;;;;;8.38;4.53;;;;;;;14.19;59.86;99320.22;5025429;28;20035;-79
2023/05/28 00:09:15;;;;;;;10.48;5.20;;;;;;;14.15;60.18;99312.94;5036308;28;20116;-80
2023/05/28 00:11:41;;;;;;;8.13;4.68;;;;;;;14.21;59.96;99317.25;5027356;28;20068;-79
2023/05/28 00:14:06;;;;;;;6.35;4.78;;;;;;;13.97;60.32;99307.97;5026662;28;20033;-79
2023/05/28 00:16:35;;;;;;;9.93;4.85;;;;;;;13.94;60.41;99300.44;5041873;28;20091;-80
2023/05/28 00:19:01;;;;;;;8.27;5.07;;;;;;;13.89;60.47;99311.16;5032896;28;20079;-79
2023/05/28 00:21:27;;;;;;;9.18;5.13;;;;;;;13.89;60.56;99311.16;5039140;28;20376;-80
2023/05/28 00:23:52;;;;;;;6.90;4.57;;;;;;;13.89;60.52;99316.53;5040022;28;20033;-80
2023/05/28 00:26:18;;;;;;;11.18;5.07;;;;;;;13.95;60.52;99318.16;5028182;28;20442;-79
2023/05/28 00:28:43;;;;;;;9.32;4.93;;;;;;;13.75;60.53;99305.44;5024318;28;20044;-79
2023/05/28 00:31:08;;;;;;;7.20;4.88;;;;;;;13.66;60.73;99309.66;5017006;28;20495;-79
2023/05/28 00:33:35;;;;;;;10.88;4.95;;;;;;;13.61;60.90;99293.50;5034225;28;20460;-79
2023/05/28 00:36:00;;;;;;;7.75;4.57;;;;;;;13.69;60.78;99303.78;5031349;28;20420;-80
2023/05/28 00:38:26;;;;;;;7.63;4.07;;;;;;;13.74;60.76;99306.47;5039153;28;20036;-79
2023/05/28 00:40:54;;;;;;;12.27;5.25;;;;;;;13.62;60.78;99287.09;5034181;28;20194;-79
2023/05/28 00:43:19;;;;;;;9.63;4.90;;;;;;;13.65;60.43;99302.66;5040182;28;20492;-80
2023/05/28 00:45:45;;;;;;;10.90;4.50;;;;;;;13.64;60.87;99302.91;5024610;28;20028;-79
2023/05/28 00:48:10;;;;;;;9.45;4.65;;;;;;;13.52;60.61;99314.63;5026708;28;20113;-79
2023/05/28 00:50:38;;;;;;;9.55;4.88;;;;;;;13.51;60.77;99307.66;5033285;28;20045;-79
2023/05/28 00:53:04;;;;;;;11.35;5.00;;;;;;;13.40;61.10;99287.19;5029522;28;20025;-79
2023/05/28 00:55:29;;;;;;;10.05;4.80;;;;;;;13.56;60.80;99306.09;5036519;28;20426;-79
2023/05/28 00:57:55;;;;;;;7.95;5.32;;;;;;;13.39;61.01;99303.50;5025575;28;20028;-80
2023/05/28 01:00:21;;;;;;;9.48;5.55;;;;;;;12.84;62.10;99282.34;5023084;28;20029;-79
2023/05/28 01:02:46;;;;;;;5.70;4.38;;;;;;;13.10;61.87;99300.31;5037216;28;20044;-79
2023/05/28 01:05:14;;;;;;;8.10;4.28;;;;;;;13.14;61.54;99280.00;5020236;28;20545;-79
2023/05/28 01:07:39;;;;;;;7.53;4.80;;;;;;;13.31;61.29;99299.44;5037465;28;20033;-79
2023/05/28 01:10:06;;;;;;;8.13;4.72;;;;;;;13.35;61.14;99299.72;5031945;28;20029;-79
2023/05/28 01:12:34;;;;;;;5.47;4.10;;;;;;;13.27;61.25;99284.94;5019057;28;20029;-79
2023/05/28 01:15:00;;;;;;;9.25;5.10;;;;;;;13.25;60.83;99278.19;5017849;28;20029;-79
2023/05/28 01:17:25;;;;;;;8.88;4.78;;;;;;;13.21;61.27;99291.31;5023918;28;20048;-80
2023/05/28 01:19:51;;;;;;;8.77;5.00;;;;;;;13.19;61.28;99281.91;5024392;28;20643;-79
2023/05/28 01:22:20;;;;;;;9.80;5.15;;;;;;;13.26;61.42;99287.84;5042858;28;20056;-79
2023/05/28 01:24:46;;;;;;;8.90;5.05;;;;;;;13.25;61.18;99292.41;5037106;28;20036;-79
2023/05/28 01:27:12;;;;;;;9.80;4.57;;;;;;;13.02;61.56;99292.69;5039686;28;20787;-79
2023/05/28 01:29:38;;;;;;;7.60;5.15;;;;;;;13.08;61.41;99283.69;5036657;28;20061;-80
2023/05/28 01:32:03;;;;;;;9.82;4.57;;;;;;;13.15;61.18;99281.59;5043877;28;20498;-80
2023/05/28 01:34:29;;;;;;;5.47;4.30;;;;;;;12.99;61.64;99273.63;5033715;28;20120;-79
2023/05/28 01:37:01;;;;;;;9.27;5.35;;;;;;;13.04;61.44;99279.06;5031642;28;20027;-79
2023/05/28 01:39:29;;;;;;;11.07;5.47;;;;;;;12.92;61.59;99265.00;5036687;28;20072;-79
2023/05/28 01:41:55;;;;;;;9.50;4.93;;;;;;;12.82;61.38;99253.09;5032312;28;20029;-79
2023/05/28 01:44:22;;;;;;;11.93;5.18;;;;;;;12.81;61.31;99245.34;5043743;28;20029;-79
2023/05/28 01:46:49;;;;;;;17.63;6.05;;;;;;;12.98;61.13;99263.97;5039550;28;21752;-79
2023/05/28 01:49:15;;;;;;;12.18;5.45;;;;;;;13.03;61.33;99275.56;5039044;28;20116;-80
2023/05/28 01:51:41;;;;;;;7.25;4.95;;;;;;;12.95;61.61;99276.03;5040793;28;20437;-80
2023/05/28 01:54:06;;;;;;;11.35;5.20;;;;;;;12.84;61.65;99268.13;5036590;28;20033;-79
2023/05/28 01:56:32;;;;;;;12.90;5.63;;;;;;;12.94;61.42;99273.59;5040807;28;20108;-79
2023/05/28 01:58:57;;;;;;;9.20;5.60;;;;;;;12.71;61.76;99256.75;5031302;28;20500;-79
2023/05/28 02:01:29;;;;;;;8.05;5.13;;;;;;;12.84;61.99;99268.13;5033585;28;20034;-79
2023/05/28 02:03:57;;;;;;;7.68;4.93;;;;;;;12.63;61.94;99257.19;5043022;28;20033;-79
2023/05/28 02:06:24;;;;;;;11.07;5.45;;;;;;;12.80;62.09;99262.44;5036037;28;20610;-79
2023/05/28 02:08:49;;;;;;;9.85;4.70;;;;;;;12.69;61.59;99250.81;5043474;28;20086;-79
2023/05/28 02:11:15;;;;;;;16.67;6.10;;;;;;;12.63;62.06;99253.69;5035215;28;20052;-79
2023/05/28 02:13:40;;;;;;;10.27;5.07;;;;;;;12.68;62.12;99261.81;5006537;28;20412;-79
2023/05/28 02:16:06;;;;;;;7.78;5.13;;;;;;;12.65;62.02;99263.09;5033650;28;20032;-80
2023/05/28 02:18:32;;;;;;;9.88;5.40;;;;;;;12.44;61.85;99237.19;5046642;28;20033;-80
2023/05/28 02:20:58;;;;;;;7.70;5.18;;;;;;;12.40;62.67;99243.28;5035925;28;20039;-80
2023/05/28 02:23:23;;;;;;;9.00;5.13;;;;;;;12.48;62.52;99257.03;5044316;28;20029;-80
2023/05/28 02:25:49;;;;;;;8.85;5.45;;;;;;;12.45;62.37;99251.38;5040286;28;20048;-79
2023/05/28 02:28:14;;;;;;;8.68;5.32;;;;;;;12.41;62.37;99244.88;5013224;28;20044;-80
2023/05/28 02:30:40;;;;;;;7.63;5.80;;;;;;;12.36;62.37;99244.84;5041677;28;20035;-80
2023/05/28 02:33:05;;;;;;;8.45;5.40;;;;;;;12.36;62.08;99237.59;5023019;28;20716;-80
2023/05/28 02:35:31;;;;;;;8.45;5.18;;;;;;;12.30;62.25;99249.31;5039286;28;20035;-80
2023/05/28 02:37:56;;;;;;;7.28;4.93;;;;;;;12.08;62.74;99250.38;5033949;28;20025;-79
2023/05/28 02:40:22;;;;;;;8.57;6.40;;;;;;;12.10;62.83;99238.34;5007630;28;20043;-80
2023/05/28 02:42:47;;;;;;;10.45;5.15;;;;;;;12.15;62.19;99226.91;5034897;28;20037;-79
2023/05/28 02:45:13;;;;;;;10.07;5.45;;;;;;;12.31;62.64;99244.78;5037713;28;20049;-80
2023/05/28 02:47:39;;;;;;;13.25;5.53;;;;;;;12.36;62.35;99250.19;5042992;28;20024;-79
2023/05/28 02:50:05;;;;;;;8.75;5.10;;;;;;;12.18;62.67;99234.44;5024199;28;20523;-80
2023/05/28 02:52:30;;;;;;;9.35;6.03;;;;;;;12.27;62.35;99262.41;5033026;28;20035;-80
2023/05/28 02:54:55;;;;;;;10.10;5.65;;;;;;;12.18;62.69;99248.66;5032513;28;20496;-79
2023/05/28 02:57:22;;;;;;;9.70;5.28;;;;;;;12.26;62.27;99247.38;5034690;28;20064;-80
2023/05/28 02:59:47;;;;;;;9.70;4.85;;;;;;;12.14;62.35;99225.31;5040517;28;20037;-79
2023/05/28 03:02:12;;;;;;;9.25;5.35;;;;;;;12.18;62.72;99247.81;5020907;28;20102;-79
2023/05/28 03:04:38;;;;;;;11.38;5.82;;;;;;;12.19;62.74;99254.81;5037235;28;20361;-79
2023/05/28 03:07:03;;;;;;;10.00;5.65;;;;;;;12.16;62.58;99249.94;5027772;28;20036;-79
2023/05/28 03:09:29;;;;;;;10.13;5.60;;;;;;;12.15;63.01;99249.13;5037539;28;20059;-80
2023/05/28 03:11:54;;;;;;;15.55;6.22;;;;;;;11.94;62.75;99239.22;5034155;28;20033;-79
2023/05/28 03:14:20;;;;;;;9.10;5.38;;;;;;;12.13;63.18;99258.47;5020904;28;20072;-79
2023/05/28 03:16:45;;;;;;;10.55;6.00;;;;;;;11.93;62.20;99218.88;5036958;28;20080;-79
2023/05/28 03:19:11;;;;;;;12.65;6.50;;;;;;;12.08;63.00;99258.41;5024975;28;20069;-79
2023/05/28 03:21:36;;;;;;;11.40;6.65;;;;;;;11.79;62.94;99261.25;5036723;28;20128;-79
2023/05/28 03:24:02;;;;;;;7.00;5.82;;;;;;;11.97;63.04;99260.94;5029975;28;20124;-80
2023/05/28 03:26:27;;;;;;;10.85;6.28;;;;;;;11.93;62.74;99256.31;5029322;28;20025;-79
2023/05/28 03:28:52;;;;;;;9.98;5.55;;;;;;;11.87;63.02;99263.47;5023017;28;20099;-79
2023/05/28 03:31:19;;;;;;;8.18;5.57;;;;;;;11.73;63.29;99253.38;5029702;28;20041;-79
2023/05/28 03:33:45;;;;;;;10.27;4.95;;;;;;;11.78;62.96;99248.91;5026436;28;20039;-79
2023/05/28 03:36:10;;;;;;;10.93;6.38;;;;;;;11.87;62.84;99260.81;5041288;28;20024;-79
2023/05/28 03:38:35;;;;;;;7.65;5.35;;;;;;;11.95;63.35;99271.06;5038345;28;20032;-79
2023/05/28 03:41:01;;;;;;;10.43;5.65;;;;;;;11.67;63.28;99260.50;5032182;28;20049;-79
2023/05/28 03:43:26;;;;;;;11.90;7.32;;;;;;;10.91;66.11;99276.31;5003781;28;20493;-79
2023/05/28 03:45:51;;;;;;;10.90;6.88;;;;;;;10.33;66.90;99245.31;5027850;28;20029;-79
2023/05/28 03:48:17;;;;;;;10.73;6.63;;;;;;;10.22;67.95;99254.16;5038755;28;20037;-80
2023/05/28 03:50:42;;;;;;;10.73;5.72;;;;;;;10.63;67.26;99281.66;5032736;28;20480;-79
2023/05/28 03:53:07;;;;;;;10.32;6.13;;;;;;;11.19;65.49;99274.41;5036530;28;20042;-80
2023/05/28 03:55:35;;;;;;;10.50;5.47;;;;;;;11.41;64.51;99276.38;5033386;28;20071;-79
2023/05/28 03:58:01;;;;;;;11.82;5.63;;;;;;;11.51;63.97;99277.34;5038300;28;20033;-79
2023/05/28 04:00:27;;;;;;;10.68;7.07;;;;;;;11.50;64.26;99289.09;5029252;28;20060;-79
2023/05/28 04:02:52;;;;;;;17.75;7.30;;;;;;;10.47;68.37;99277.88;5041487;28;20461;-79
2023/05/28 04:05:18;;;;;;;10.07;6.72;;;;;;;10.20;69.68;99282.16;5038416;28;20043;-79
2023/05/28 04:07:43;;;;;;;8.68;5.30;;;;;;;10.73;66.62;99255.16;5036764;28;20430;-79
2023/05/28 04:10:09;;;;;;;8.55;6.65;;;;;;;11.18;66.20;99261.31;5032331;28;20071;-79
2023/05/28 04:12:34;;;;;;;12.93;6.90;;;;;;;10.93;67.55;99279.56;5033484;28;20025;-79
2023/05/28 04:15:00;;;;;;;13.00;7.63;;;;;;;10.44;70.00;99273.03;5035388;28;20032;-79
2023/05/28 04:17:27;;;;;;;11.32;6.80;;;;;;;10.21;71.91;99260.56;5041653;28;20024;-79
2023/05/28 04:19:55;;;;;;;8.35;6.80;;;;;;;10.13;73.23;99250.28;5039242;28;20048;-79
2023/05/28 04:22:23;;;;;;;12.20;6.53;;;;;;;10.16;73.24;99267.63;5043342;28;20037;-79
2023/05/28 04:24:51;;;;;;;12.50;8.15;;;;;;;10.08;73.67;99258.13;5023478;28;20076;-79
2023/05/28 04:27:17;;;;;;;12.07;6.28;;;;;;;10.36;70.68;99217.38;5037849;28;20056;-79
2023/05/28 04:29:43;;;;;;;17.65;7.72;;;;;;;10.87;71.26;99278.66;5039247;28;20510;-79
2023/05/28 04:32:09;;;;;;;18.00;8.63;;;;;;;10.59;74.50;99267.19;5031932;28;20794;-79
2023/05/28 04:34:34;;;;;;;13.32;8.55;;;;;;;10.33;74.87;99258.66;5033809;28;20029;-79
2023/05/28 04:37:00;;;;;;;12.93;8.50;;;;;;;10.01;76.67;99275.28;5039749;28;20021;-79
2023/05/28 04:39:26;;;;;;;17.27;9.35;;;;;;;10.05;77.03;99269.25;5022126;28;20597;-79
2023/05/28 04:41:53;;;;;;;16.17;8.40;;;;;;;10.55;76.13;99278.31;5042037;28;20025;-79
2023/05/28 04:44:19;;;;;;;15.75;8.40;;;;;;;10.64;76.72;99272.63;5036099;28;20459;-79
2023/05/28 04:46:48;;;;;;;14.35;8.48;;;;;;;10.58;76.59;99258.34;5031072;28;20039;-79
2023/05/28 04:49:13;;;;;;;15.75;7.85;;;;;;;10.61;76.55;99265.91;5028249;28;20033;-79
2023/05/28 04:51:38;;;;;;;15.63;9.00;;;;;;;10.46;77.16;99250.38;5007344;28;20030;-79
2023/05/28 04:54:04;;;;;;;16.63;9.23;;;;;;;10.57;76.66;99250.59;5025191;28;20075;-79
2023/05/28 04:56:29;;;;;;;15.90;9.43;;;;;;;10.62;76.69;99248.00;5030083;28;20036;-79
2023/05/28 04:58:55;;;;;;;16.90;8.73;;;;;;;10.63;76.57;99261.13;5035585;28;20528;-79
2023/05/28 05:01:22;;;;;;;14.43;8.57;;;;;;;10.76;77.27;99270.72;5033367;28;20056;-80
2023/05/28 05:03:47;;;;;;;22.65;11.13;;;;;;;10.33;76.60;99239.19;5035431;28;20026;-79
2023/05/28 05:06:13;;;;;;;17.40;9.13;;;;;;;10.49;76.28;99268.59;5021366;28;20032;-79
2023/05/28 05:08:38;;;;;;;14.90;8.80;;;;;;;10.81;75.96;99270.81;5032683;28;20036;-79
2023/05/28 05:11:06;;;;;;;17.58;9.65;;;;;;;10.95;75.56;99258.75;5033680;28;20029;-80
2023/05/28 05:13:32;;;;;;;17.23;9.43;;;;;;;10.87;75.57;99267.19;5037550;28;20037;-79
2023/05/28 05:15:57;;;;;;;18.45;9.35;;;;;;;10.64;76.82;99251.28;5022779;28;20032;-79
2023/05/28 05:18:23;;;;;;;16.02;9.27;;;;;;;10.49;78.09;99268.59;5043035;28;20059;-79
2023/05/28 05:20:48;;;;;;;19.17;10.07;;;;;;;10.36;78.20;99250.19;5039876;28;20033;-78
2023/05/28 05:23:13;;;;;;;19.38;9.90;;;;;;;10.60;77.32;99268.78;5025498;28;21050;-78
2023/05/28 05:25:39;;;;;;;15.02;9.32;;;;;;;10.57;78.22;99268.22;5032548;28;20033;-79
2023/05/28 05:28:04;;;;;;;20.40;10.60;;;;;;;10.78;77.67;99263.25;5035660;28;20074;-79
2023/05/28 05:30:30;;;;;;;14.13;6.97;;;;;;;12.08;69.76;99253.84;5042441;28;20041;-79
2023/05/28 05:32:55;;;;;;;9.77;6.75;;;;;;;12.01;71.74;99248.69;5022972;28;20574;-79
2023/05/28 05:35:20;;;;;;;13.82;7.90;;;;;;;12.09;72.22;99260.84;5026002;28;20389;-79
2023/05/28 05:37:46;;;;;;;18.38;10.35;;;;;;;11.88;73.88;99246.38;5038716;28;20032;-79
2023/05/28 05:40:12;;;;;;;14.00;8.15;;;;;;;11.83;72.63;99257.00;5035998;28;20029;-79
2023/05/28 05:42:37;;;;;;;12.07;8.02;;;;;;;12.29;72.05;99252.25;5015839;28;20112;-80
2023/05/28 05:45:05;;;;;;;13.70;8.20;;;;;;;12.22;72.48;99254.28;5021657;28;20034;-79
2023/05/28 05:47:31;;;;;;;12.75;7.97;;;;;;;12.39;73.35;99265.75;5024146;28;20021;-79
2023/05/28 05:49:57;;;;;;;12.60;8.15;;;;;;;12.04;73.88;99269.59;5035211;28;20029;-79
2023/05/28 05:52:23;;;;;;;9.77;6.55;;;;;;;12.75;69.35;99273.91;5038827;28;20082;-79
2023/05/28 05:54:48;;;;;;;15.65;7.82;;;;;;;12.68;71.68;99269.84;5040101;28;20440;-79
2023/05/28 05:57:14;;;;;;;17.65;9.35;;;;;;;12.45;72.47;99260.19;5032474;28;20029;-79
2023/05/28 05:59:40;;;;;;;14.93;8.55;;;;;;;12.18;74.10;99269.22;5020200;28;20435;-79
2023/05/28 06:02:06;;;;;;;14.65;10.30;;;;;;;11.73;75.26;99272.09;5001503;28;20042;-79
2023/05/28 06:04:33;;;;;;;19.13;9.85;;;;;;;11.74;76.39;99257.66;5043279;28;20056;-79
2023/05/28 06:07:05;;;;;;;21.73;10.73;;;;;;;11.83;76.51;99261.53;5039680;28;20596;-79
2023/05/28 06:09:31;;;;;;;15.20;9.63;;;;;;;12.00;76.01;99257.78;5043972;28;20041;-79
2023/05/28 06:11:57;;;;;;;26.42;10.60;;;;;;;11.62;76.09;99244.34;5031073;28;20051;-79
2023/05/28 06:14:23;;;;;;;16.00;9.75;;;;;;;11.98;74.94;99262.56;5036078;28;20045;-79
2023/05/28 06:16:50;;;;;;;18.13;10.02;;;;;;;11.72;75.96;99259.78;5034248;28;20045;-78
2023/05/28 06:19:15;;;;;;;20.67;11.95;;;;;;;12.13;75.39;99261.13;5024847;28;20056;-79
2023/05/28 06:21:40;;;;;;;10.60;7.18;;;;;;;12.85;70.74;99270.56;5040439;28;20030;-79
2023/05/28 06:24:06;;;;;;;13.93;8.75;;;;;;;11.81;74.76;99253.78;5040827;28;20132;-79
2023/05/28 06:26:32;;;;;;;13.07;7.18;;;;;;;12.67;71.20;99261.00;5025849;28;20026;-79
2023/05/28 06:28:57;;;;;;;23.13;8.65;;;;;;;12.55;71.18;99264.88;5042327;28;20044;-79
2023/05/28 06:31:22;;;;;;;24.90;10.43;;;;;;;12.03;74.92;99254.59;5043891;28;20039;-79
2023/05/28 06:33:48;;;;;;;18.92;10.68;;;;;;;12.25;74.43;99248.47;5036538;28;20040;-79
2023/05/28 06:36:13;;;;;;;21.45;11.00;;;;;;;12.39;75.20;99238.97;5037489;28;20033;-80
2023/05/28 06:38:39;;;;;;;11.38;6.93;;;;;;;12.77;72.98;99277.19;5023457;28;20549;-79
2023/05/28 06:41:04;;;;;;;25.90;11.32;;;;;;;12.78;73.24;99265.38;5037290;28;20123;-79
2023/05/28 06:43:30;;;;;;;11.40;7.25;;;;;;;13.04;72.15;99271.81;5035815;28;21168;-79
2023/05/28 06:45:55;;;;;;;8.95;7.03;;;;;;;13.36;69.82;99256.59;5042479;28;20079;-79
2023/05/28 06:48:21;;;;;;;11.48;7.45;;;;;;;13.44;70.79;99277.56;5043493;28;20028;-80
2023/05/28 06:50:46;;;;;;;15.65;6.95;;;;;;;14.25;66.98;99275.38;5041635;28;20025;-80
2023/05/28 06:53:11;;;;;;;17.20;10.10;;;;;;;13.64;70.56;99273.41;5022074;28;20056;-79
2023/05/28 06:55:37;;;;;;;13.57;6.45;;;;;;;14.33;65.85;99272.22;5025733;28;20040;-79
2023/05/28 06:58:02;;;;;;;12.60;8.02;;;;;;;13.91;69.68;99284.88;5038592;28;20025;-79
2023/05/28 07:00:28;;;;;;;11.98;6.57;;;;;;;14.01;67.34;99269.63;5016524;28;20041;-79
2023/05/28 07:02:53;;;;;;;12.77;5.72;;;;;;;14.75;65.71;99277.47;5034535;28;20041;-79
2023/05/28 07:05:18;;;;;;;13.05;8.52;;;;;;;13.71;69.34;99279.38;5028346;28;20076;-79
2023/05/28 07:07:44;;;;;;;17.27;8.35;;;;;;;13.24;70.07;99263.97;5039718;28;20082;-79
2023/05/28 07:10:10;;;;;;;36.38;13.77;;;;;;;13.48;69.92;99278.66;5021757;28;20113;-79
2023/05/28 07:12:35;;;;;;;17.92;9.50;;;;;;;13.51;70.07;99270.13;5038475;28;20036;-79
2023/05/28 07:15:02;;;;;;;15.35;7.13;;;;;;;14.27;67.50;99284.81;5024389;28;20418;-80
2023/05/28 07:17:28;;;;;;;16.08;7.97;;;;;;;13.60;69.90;99273.13;5022859;28;20029;-79
2023/05/28 07:19:53;;;;;;;14.45;7.75;;;;;;;13.68;70.34;99290.59;5018432;28;20385;-79
2023/05/28 07:22:19;;;;;;;14.05;7.50;;;;;;;13.83;70.35;99291.53;5036332;28;20038;-79
2023/05/28 07:24:44;;;;;;;11.27;6.75;;;;;;;14.20;67.52;99264.63;5040616;28;20032;-79
2023/05/28 07:27:09;;;;;;;13.02;6.35;;;;;;;14.20;66.79;99273.47;5035403;28;20047;-80
2023/05/28 07:29:36;;;;;;;16.17;6.00;;;;;;;14.50;66.39;99278.22;5019010;28;20066;-80
2023/05/28 07:32:02;;;;;;;10.77;6.10;;;;;;;14.52;66.65;99294.88;5030186;28;20026;-80
2023/05/28 07:34:27;;;;;;;14.57;6.35;;;;;;;14.10;67.36;99251.97;5035799;28;20048;-80
2023/05/28 07:36:53;;;;;;;15.18;5.85;;;;;;;15.12;65.18;99290.72;5040777;28;20026;-79
2023/05/28 07:39:18;;;;;;;8.48;6.28;;;;;;;15.62;65.86;99294.28;5036892;28;20124;-80
2023/05/28 07:41:43;;;;;;;11.27;5.65;;;;;;;15.99;62.07;99287.78;5025848;28;20067;-80
2023/05/28 07:44:09;;;;;;;10.20;5.40;;;;;;;15.27;64.58;99298.81;5027320;28;20065;-80
2023/05/28 07:46:36;;;;;;;16.23;6.18;;;;;;;15.59;66.66;99294.03;5034638;28;20128;-80
2023/05/28 07:49:02;;;;;;;10.25;5.75;;;;;;;15.27;64.55;99278.09;5043645;28;20025;-79
2023/05/28 07:51:27;;;;;;;15.45;6.95;;;;;;;15.48;65.33;99297.78;5035028;28;20116;-79
2023/05/28 07:53:53;;;;;;;13.75;4.85;;;;;;;15.65;64.04;99282.19;5025905;28;20036;-79
2023/05/28 07:56:21;;;;;;;9.80;5.55;;;;;;;15.74;65.40;99299.41;5024462;28;20033;-79
2023/05/28 07:58:47;;;;;;;7.90;5.50;;;;;;;16.18;62.86;99297.72;5033943;28;20873;-80
2023/05/28 08:01:12;;;;;;;10.90;5.57;;;;;;;15.80;63.79;99282.16;5034004;28;20040;-80
2023/05/28 08:03:38;;;;;;;15.98;6.22;;;;;;;15.40;62.52;99290.22;5028390;28;20467;-80
2023/05/28 08:06:04;;;;;;;11.35;4.60;;;;;;;15.58;63.50;99278.94;5040623;28;20029;-80
2023/05/28 08:08:30;;;;;;;12.25;6.00;;;;;;;15.66;63.82;99292.66;5034310;28;20021;-80
2023/05/28 08:10:55;;;;;;;11.20;5.40;;;;;;;15.85;63.90;99292.13;5035710;28;20484;-79
2023/05/28 08:13:21;;;;;;;11.38;5.93;;;;;;;15.81;62.78;99288.34;5033636;28;20075;-79
2023/05/28 08:15:47;;;;;;;11.50;5.68;;;;;;;15.73;64.02;99287.00;5035385;28;20026;-81
2023/05/28 08:18:12;;;;;;;9.13;6.13;;;;;;;15.89;65.29;99277.84;5035687;28;20402;-80
2023/05/28 08:20:39;;;;;;;12.45;6.22;;;;;;;16.04;64.29;99283.19;5025341;28;20056;-79
2023/05/28 08:23:04;;;;;;;7.50;5.65;;;;;;;15.95;63.80;99260.59;5035743;28;20060;-79
2023/05/28 08:25:30;;;;;;;11.50;5.47;;;;;;;16.29;64.10;99285.00;5038751;28;20099;-79
2023/05/28 08:27:55;;;;;;;9.95;5.88;;;;;;;16.06;62.01;99255.97;5032863;28;20752;-79
2023/05/28 08:30:21;;;;;;;11.27;6.35;;;;;;;16.15;59.95;99265.13;5026817;28;20119;-79
2023/05/28 08:32:47;;;;;;;15.00;5.80;;;;;;;16.24;60.13;99274.25;5031281;28;20039;-79
2023/05/28 08:35:12;;;;;;;16.23;4.95;;;;;;;16.52;61.10;99279.00;5029043;28;20026;-80
2023/05/28 08:37:38;;;;;;;10.02;5.18;;;;;;;16.52;61.17;99272.81;5037167;28;20082;-79
2023/05/28 08:40:08;;;;;;;9.27;5.00;;;;;;;16.64;60.14;99255.25;5036999;28;20076;-80
2023/05/28 08:42:34;;;;;;;12.70;5.10;;;;;;;16.75;59.91;99266.78;5043149;28;20046;-80
2023/05/28 08:45:00;;;;;;;8.50;4.47;;;;;;;16.67;60.64;99256.56;5039444;28;20036;-80
2023/05/28 08:47:31;;;;;;;13.15;4.80;;;;;;;16.92;58.96;99259.94;5041335;28;20029;-80
2023/05/28 08:50:05;;;;;;;7.90;5.28;;;;;;;16.62;58.17;99246.63;5041347;28;20108;-79
2023/05/28 08:52:32;;;;;;;11.18;4.63;;;;;;;17.15;59.42;99256.53;5039794;28;20071;-80
2023/05/28 08:54:59;;;;;;;11.00;4.57;;;;;;;18.08;58.59;99244.66;5042474;28;20041;-80
2023/05/28 08:57:29;;;;;;;9.82;5.65;;;;;;;17.48;56.91;99246.81;5038960;28;20415;-80
2023/05/28 08:59:55;;;;;;;10.48;4.78;;;;;;;17.67;56.64;99247.75;5044627;28;20036;-80
2023/05/28 09:02:24;;;;;;;13.50;5.47;;;;;;;17.28;56.03;99211.13;5034104;28;20119;-79
2023/05/28 09:04:50;;;;;;;8.32;4.85;;;;;;;17.82;58.25;99223.31;5030076;28;20021;-79
2023/05/28 09:07:15;;;;;;;5.43;4.22;;;;;;;18.47;56.69;99213.66;5034510;28;20043;-79
2023/05/28 09:09:42;;;;;;;9.15;4.63;;;;;;;18.25;54.92;99234.19;5041600;28;20028;-79
2023/05/28 09:12:12;;;;;;;11.63;5.53;;;;;;;17.94;56.96;99223.72;5041057;28;20024;-79
2023/05/28 09:14:41;;;;;;;12.85;4.88;;;;;;;18.64;56.32;99218.56;5041134;28;20071;-79
2023/05/28 09:17:08;;;;;;;10.43;5.07;;;;;;;18.89;55.31;99215.50;5039631;28;20028;-80
2023/05/28 09:19:35;;;;;;;6.75;4.22;;;;;;;19.28;55.26;99215.16;5037195;28;20052;-80
2023/05/28 09:22:02;;;;;;;7.57;4.45;;;;;;;19.29;54.81;99204.03;5042564;28;20544;-80
2023/05/28 09:24:32;;;;;;;9.32;5.30;;;;;;;19.26;54.47;99210.00;5029251;28;20036;-80
2023/05/28 09:26:58;;;;;;;9.07;5.07;;;;;;;19.04;55.04;99212.56;5034082;28;20112;-80
2023/05/28 09:29:24;;;;;;;11.35;4.35;;;;;;;18.64;51.69;99202.34;5045697;28;20036;-79
2023/05/28 09:32:00;;;;;;;10.77;4.45;;;;;;;18.66;51.92;99195.53;5039128;28;20056;-79
2023/05/28 09:34:27;;;;;;;8.63;3.97;;;;;;;18.50;49.74;99204.16;5039349;28;22089;-79
2023/05/28 09:36:53;;;;;;;11.15;4.20;;;;;;;18.87;54.36;99181.72;5030746;28;20049;-79
2023/05/28 09:39:18;;;;;;;12.55;4.05;;;;;;;18.60;51.05;99194.00;5036931;28;20060;-79
2023/05/28 09:41:46;;;;;;;7.47;4.47;;;;;;;18.85;51.77;99197.44;5051550;28;20040;-80
2023/05/28 09:44:12;;;;;;;9.90;3.55;;;;;;;18.43;48.25;99182.06;5029079;28;20519;-80
2023/05/28 09:46:38;;;;;;;10.10;4.20;;;;;;;18.62;49.61;99183.72;5044354;28;20064;-79
2023/05/28 09:49:03;;;;;;;6.72;4.10;;;;;;;19.25;54.10;99192.19;5014154;28;20504;-80
2023/05/28 09:51:33;;;;;;;6.75;3.95;;;;;;;19.72;52.52;99179.47;5049718;28;20369;-79
2023/05/28 09:54:05;;;;;;;6.03;4.68;;;;;;;19.36;49.30;99182.81;5048693;28;20025;-79
2023/05/28 09:56:32;;;;;;;7.50;3.80;;;;;;;20.13;52.58;99175.66;5032846;28;20445;-80
2023/05/28 09:59:00;;;;;;;7.10;3.70;;;;;;;20.21;51.01;99185.00;5027482;28;20022;-80
2023/05/28 10:01:54;;;;;;;5.63;3.83;;;;;;;19.50;48.18;99187.47;5041835;28;20067;-80
2023/05/28 10:04:27;;;;;;;7.50;4.35;;;;;;;19.78;51.37;99175.56;5037260;28;20148;-80
2023/05/28 10:06:53;;;;;;;7.43;3.60;;;;;;;20.25;52.04;99174.38;5036200;28;20534;-80
2023/05/28 10:09:19;;;;;;;4.70;3.60;;;;;;;20.48;51.18;99171.41;5020715;28;20041;-80
2023/05/28 10:11:58;;;;;;;7.82;4.10;;;;;;;20.15;46.36;99180.78;5026487;28;20420;-80
2023/05/28 10:14:23;;;;;;;7.53;4.10;;;;;;;20.12;48.40;99187.59;5042140;28;20499;-80
2023/05/28 10:16:49;;;;;;;6.82;4.07;;;;;;;19.94;46.39;99171.47;5040167;28;20033;-80
2023/05/28 10:19:15;;;;;;;5.78;3.55;;;;;;;19.75;45.55;99171.53;5038310;28;20041;-80
2023/05/28 10:21:41;;;;;;;7.10;3.63;;;;;;;20.08;46.84;99191.22;5029953;28;20029;-80
2023/05/28 10:24:07;;;;;;;7.55;4.88;;;;;;;20.30;45.29;99191.34;5035860;28;20033;-80
2023/05/28 10:26:33;;;;;;;6.65;3.80;;;;;;;20.05;45.69;99181.00;5020096;28;20030;-79
2023/05/28 10:28:58;;;;;;;5.25;3.72;;;;;;;20.45;48.78;99193.72;5023832;28;20028;-80
2023/05/28 10:31:24;;;;;;;5.30;3.45;;;;;;;21.21;49.24;99183.84;5036711;28;20080;-80
2023/05/28 10:33:50;;;;;;;5.97;3.67;;;;;;;20.26;44.24;99184.09;5016748;28;20108;-80
2023/05/28 10:36:16;;;;;;;7.53;4.13;;;;;;;20.54;44.86;99182.94;5040088;28;20026;-80
2023/05/28 10:38:44;;;;;;;11.60;4.18;;;;;;;21.60;48.63;99190.13;5035308;28;20017;-80
2023/05/28 10:41:10;;;;;;;6.28;3.17;;;;;;;21.63;47.89;99191.44;5032003;28;20116;-80
2023/05/28 10:43:38;;;;;;;5.40;3.45;;;;;;;21.21;43.37;99189.28;5037009;28;20116;-80
2023/05/28 10:46:11;;;;;;;7.38;3.58;;;;;;;21.44;44.45;99188.13;5024125;28;20032;-80
2023/05/28 10:48:41;;;;;;;12.77;3.83;;;;;;;21.44;47.04;99188.94;5028883;28;20027;-80
2023/05/28 10:51:06;;;;;;;7.10;3.88;;;;;;;20.75;43.83;99187.59;5024220;28;20033;-80
2023/05/28 10:53:32;;;;;;;8.13;4.35;;;;;;;20.98;43.72;99182.19;5042513;28;20028;-80
2023/05/28 10:55:57;;;;;;;4.60;3.30;;;;;;;21.52;47.87;99169.16;5045447;28;20107;-80
2023/05/28 10:58:27;;;;;;;11.52;4.00;;;;;;;21.61;43.64;99193.66;5039064;28;20021;-80
2023/05/28 11:00:59;;;;;;;7.53;4.05;;;;;;;21.67;43.85;99182.34;5035078;28;20555;-80
2023/05/28 11:03:45;;;;;;;8.88;3.92;;;;;;;21.97;44.84;99190.81;5035993;28;20029;-80
2023/05/28 11:06:12;;;;;;;5.75;3.67;;;;;;;20.88;41.95;99177.84;5029102;28;20409;-80
2023/05/28 11:08:47;;;;;;;5.47;3.22;;;;;;;20.82;42.30;99176.31;5043457;28;20044;-80
2023/05/28 11:11:14;;;;;;;8.57;3.50;;;;;;;20.89;41.92;99190.28;5027988;28;20025;-80
2023/05/28 11:59:11;;;;;;;;;;;;;;;23.94;38.76;99147.19;5541946;22;18573871;-82
2023/05/28 12:09:02;;;;;;;5.72;4.18;;;;;;;23.85;38.54;99147.25;6195892;23;20043;-81
2023/05/28 12:12:32;;;;;;;;;;;;;;;;;;;;;
2023/05/28 12:15:39;;;;;;;6.30;3.50;;;;;;;24.83;39.34;99139.41;6128000;23;20040;-81
2023/05/28 12:18:30;;;;;;;6.32;3.75;;;;;;;24.47;39.54;99123.59;6135209;23;20017;-80
2023/05/28 12:24:53;;;;;;;;;;;;;;;23.59;40.48;99138.38;6134512;23;20053;-81